createdAt,value
2019-03-24T00:00:24.666Z,7.93
2019-03-24T00:03:00.690Z,8.08
2019-03-24T00:05:35.839Z,8.07
2019-03-24T00:08:06.227Z,7.93
2019-03-24T00:10:36.581Z,7.80
2019-03-24T00:13:09.474Z,7.79
2019-03-24T00:15:39.951Z,7.85
2019-03-24T00:18:10.808Z,7.88
2019-03-24T00:20:41.559Z,7.82
2019-03-24T00:23:14.698Z,7.89
2019-03-24T00:25:46.169Z,7.91
2019-03-24T00:28:15.910Z,7.93
2019-03-24T00:30:46.765Z,7.92
2019-03-24T00:33:31.848Z,7.90
2019-03-24T00:36:05.624Z,7.94
2019-03-24T00:38:37.686Z,7.85
2019-03-24T00:41:07.405Z,7.84
2019-03-24T00:43:37.182Z,7.77
2019-03-24T00:46:10.672Z,7.68
2019-03-24T00:48:43.386Z,7.49
2019-03-24T00:51:13.294Z,7.58
2019-03-24T00:53:43.557Z,7.48
2019-03-24T00:56:13.282Z,7.21
2019-03-24T00:58:43.087Z,7.05
2019-03-24T01:01:12.905Z,7.21
2019-03-24T01:03:43.550Z,7.20
2019-03-24T01:06:13.979Z,7.37
2019-03-24T01:08:45.708Z,7.34
2019-03-24T01:11:16.465Z,7.35
2019-03-24T01:13:46.542Z,7.32
2019-03-24T01:16:17.091Z,7.30
2019-03-24T01:18:46.847Z,7.34
2019-03-24T01:21:16.771Z,7.42
2019-03-24T01:23:46.622Z,7.39
2019-03-24T01:26:16.353Z,7.41
2019-03-24T01:28:46.201Z,7.26
2019-03-24T01:31:16.049Z,7.34
2019-03-24T01:33:47.090Z,7.43
2019-03-24T01:36:20.871Z,7.46
2019-03-24T01:39:00.391Z,7.36
2019-03-24T01:41:30.577Z,7.41
2019-03-24T01:44:02.537Z,7.41
2019-03-24T01:46:33.029Z,7.39
2019-03-24T01:49:02.817Z,7.22
2019-03-24T01:51:34.324Z,7.23
2019-03-24T01:54:05.100Z,6.89
2019-03-24T01:56:35.739Z,7.08
2019-03-24T01:59:05.504Z,7.08
2019-03-24T02:01:35.579Z,7.06
2019-03-24T02:04:06.878Z,7.06
2019-03-24T02:06:38.698Z,7.03
2019-03-24T02:09:09.253Z,7.07
2019-03-24T02:11:44.471Z,7.03
2019-03-24T02:14:14.220Z,6.97
2019-03-24T02:16:45.159Z,6.94
2019-03-24T02:19:15.258Z,7.09
2019-03-24T02:21:45.436Z,7.06
2019-03-24T02:24:15.816Z,7.07
2019-03-24T02:26:47.174Z,7.09
2019-03-24T02:29:18.179Z,7.16
2019-03-24T02:31:48.737Z,7.13
2019-03-24T02:34:18.496Z,7.14
2019-03-24T02:36:48.985Z,7.14
2019-03-24T02:39:19.566Z,7.14
2019-03-24T02:41:50.140Z,7.12
2019-03-24T02:44:25.945Z,7.08
2019-03-24T02:46:56.015Z,6.99
2019-03-24T02:49:27.247Z,6.99
2019-03-24T02:51:56.989Z,6.96
2019-03-24T02:54:31.289Z,7.00
2019-03-24T02:57:01.544Z,6.97
2019-03-24T02:59:36.932Z,6.94
2019-03-24T03:02:07.752Z,6.81
2019-03-24T03:04:38.196Z,6.70
2019-03-24T03:07:12.156Z,6.70
2019-03-24T03:09:43.045Z,6.58
2019-03-24T03:12:14.399Z,6.54
2019-03-24T03:14:44.130Z,6.65
2019-03-24T03:17:14.134Z,6.58
2019-03-24T03:19:48.990Z,6.59
2019-03-24T03:22:18.902Z,6.76
2019-03-24T03:24:49.272Z,6.76
2019-03-24T03:27:19.873Z,6.85
2019-03-24T03:29:50.065Z,6.78
2019-03-24T03:32:20.101Z,6.87
2019-03-24T03:34:49.846Z,6.75
2019-03-24T03:37:20.443Z,6.76
2019-03-24T03:39:50.894Z,6.67
2019-03-24T03:42:20.658Z,6.76
2019-03-24T03:44:51.674Z,6.75
2019-03-24T03:47:21.409Z,6.76
2019-03-24T03:49:51.741Z,6.72
2019-03-24T03:52:21.820Z,6.73
2019-03-24T03:54:53.331Z,6.70
2019-03-24T03:57:24.040Z,6.72
2019-03-24T03:59:54.472Z,6.67
2019-03-24T04:02:26.325Z,6.69
2019-03-24T04:04:56.020Z,6.69
2019-03-24T04:07:26.327Z,6.69
2019-03-24T04:09:56.419Z,6.70
2019-03-24T04:12:28.504Z,6.69
2019-03-24T04:14:58.972Z,6.67
2019-03-24T04:17:28.681Z,6.70
2019-03-24T04:20:00.945Z,6.66
2019-03-24T04:22:33.981Z,6.81
2019-03-24T04:25:03.732Z,6.85
2019-03-24T04:27:33.800Z,6.81
2019-03-24T04:30:03.843Z,6.85
2019-03-24T04:32:33.828Z,6.92
2019-03-24T04:35:05.723Z,6.84
2019-03-24T04:37:41.632Z,6.82
2019-03-24T04:40:15.203Z,6.81
2019-03-24T04:42:45.739Z,6.86
2019-03-24T04:45:16.125Z,6.87
2019-03-24T04:47:47.445Z,6.96
2019-03-24T04:50:21.617Z,6.84
2019-03-24T04:52:52.002Z,6.95
2019-03-24T04:55:24.126Z,7.00
2019-03-24T04:57:53.824Z,7.03
2019-03-24T05:00:35.782Z,7.02
2019-03-24T05:03:07.198Z,7.01
2019-03-24T05:05:37.733Z,7.05
2019-03-24T05:08:11.188Z,7.11
2019-03-24T05:10:48.595Z,7.20
2019-03-24T05:13:19.471Z,7.00
2019-03-24T05:15:52.900Z,7.03
2019-03-24T05:18:23.154Z,7.08
2019-03-24T05:20:53.530Z,7.10
2019-03-24T05:23:25.349Z,7.06
2019-03-24T05:25:55.408Z,7.12
2019-03-24T05:28:26.025Z,7.18
2019-03-24T05:30:56.947Z,7.26
2019-03-24T05:33:27.754Z,7.28
2019-03-24T05:35:58.852Z,7.38
2019-03-24T05:38:31.451Z,7.28
2019-03-24T05:41:02.024Z,7.33
2019-03-24T05:43:37.786Z,7.39
2019-03-24T05:46:09.891Z,7.41
2019-03-24T05:48:40.978Z,7.41
2019-03-24T05:51:13.841Z,7.47
2019-03-24T05:53:44.310Z,7.48
2019-03-24T05:56:14.431Z,7.56
2019-03-24T05:58:44.142Z,7.50
2019-03-24T06:01:14.872Z,7.62
2019-03-24T06:03:46.373Z,7.51
2019-03-24T06:06:16.923Z,7.53
2019-03-24T06:08:50.269Z,7.64
2019-03-24T06:11:24.436Z,7.63
2019-03-24T06:14:02.874Z,7.68
2019-03-24T06:16:34.762Z,7.70
2019-03-24T06:19:05.230Z,7.77
2019-03-24T06:21:37.517Z,7.84
2019-03-24T06:24:09.097Z,7.90
2019-03-24T06:26:39.087Z,8.03
2019-03-24T06:29:08.812Z,7.95
2019-03-24T06:31:42.923Z,7.94
2019-03-24T06:34:13.468Z,8.00
2019-03-24T06:36:45.202Z,8.16
2019-03-24T06:39:22.024Z,8.16
2019-03-24T06:41:52.028Z,8.30
2019-03-24T06:44:26.286Z,8.32
2019-03-24T06:46:57.436Z,8.25
2019-03-24T06:49:28.287Z,8.22
2019-03-24T06:52:00.447Z,8.26
2019-03-24T06:54:36.801Z,8.32
2019-03-24T06:57:08.604Z,8.36
2019-03-24T06:59:44.030Z,8.51
2019-03-24T07:02:14.853Z,8.43
2019-03-24T07:04:46.163Z,8.40
2019-03-24T07:07:17.443Z,8.52
2019-03-24T07:09:48.667Z,8.53
2019-03-24T07:12:19.954Z,8.63
2019-03-24T07:14:49.984Z,8.71
2019-03-24T07:17:20.324Z,8.65
2019-03-24T07:19:51.442Z,8.69
2019-03-24T07:22:26.820Z,8.85
2019-03-24T07:24:58.051Z,8.79
2019-03-24T07:27:30.061Z,8.73
2019-03-24T07:30:01.423Z,8.76
2019-03-24T07:32:31.824Z,8.92
2019-03-24T07:35:01.822Z,8.92
2019-03-24T07:37:31.581Z,8.86
2019-03-24T07:40:02.547Z,9.01
2019-03-24T07:42:33.354Z,9.05
2019-03-24T07:45:03.110Z,9.00
2019-03-24T07:47:35.318Z,9.04
2019-03-24T07:50:13.011Z,9.19
2019-03-24T07:52:43.907Z,9.26
2019-03-24T07:55:13.715Z,9.39
2019-03-24T07:57:44.458Z,9.26
2019-03-24T08:00:16.222Z,9.41
2019-03-24T08:02:55.728Z,9.40
2019-03-24T08:05:25.764Z,9.45
2019-03-24T08:07:55.519Z,9.76
2019-03-24T08:10:26.861Z,9.66
2019-03-24T08:12:56.740Z,9.72
2019-03-24T08:15:27.670Z,9.98
2019-03-24T08:17:57.516Z,9.81
2019-03-24T08:20:27.364Z,9.80
2019-03-24T08:22:59.251Z,9.77
2019-03-24T08:25:31.672Z,9.71
2019-03-24T08:28:02.531Z,9.71
2019-03-24T08:30:38.244Z,9.83
2019-03-24T08:33:09.337Z,9.65
2019-03-24T08:35:40.481Z,9.87
2019-03-24T08:38:10.706Z,9.81
2019-03-24T08:40:40.505Z,9.86
2019-03-24T08:43:11.215Z,9.83
2019-03-24T08:45:40.974Z,9.89
2019-03-24T08:48:12.152Z,9.87
2019-03-24T08:50:42.172Z,9.93
2019-03-24T08:53:12.632Z,9.86
2019-03-24T08:55:46.053Z,9.85
2019-03-24T08:58:16.177Z,9.98
2019-03-24T09:00:46.801Z,9.95
2019-03-24T09:03:16.533Z,9.93
2019-03-24T09:05:46.952Z,10.02
2019-03-24T09:08:17.080Z,10.12
2019-03-24T09:10:46.838Z,10.42
2019-03-24T09:13:16.597Z,10.38
2019-03-24T09:15:46.744Z,10.24
2019-03-24T09:18:16.831Z,10.10
2019-03-24T09:20:46.608Z,10.15
2019-03-24T09:23:16.366Z,10.46
2019-03-24T09:25:49.966Z,10.39
2019-03-24T09:28:20.608Z,10.44
2019-03-24T09:30:51.300Z,10.78
2019-03-24T09:33:21.049Z,10.80
2019-03-24T09:35:51.827Z,10.91
2019-03-24T09:38:22.526Z,10.90
2019-03-24T09:40:54.081Z,10.92
2019-03-24T09:43:23.824Z,11.10
2019-03-24T09:45:56.069Z,11.45
2019-03-24T09:48:25.170Z,11.70
2019-03-24T09:50:58.276Z,11.64
2019-03-24T09:53:30.109Z,12.21
2019-03-24T09:56:01.662Z,12.31
2019-03-24T09:58:32.679Z,12.30
2019-03-24T10:01:03.663Z,12.74
2019-03-24T10:03:36.564Z,12.88
2019-03-24T10:06:15.111Z,13.07
2019-03-24T10:08:47.385Z,13.42
2019-03-24T10:11:16.914Z,13.45
2019-03-24T10:13:46.657Z,13.24
2019-03-24T10:16:16.416Z,13.48
2019-03-24T10:18:46.151Z,13.79
2019-03-24T10:21:15.919Z,13.93
2019-03-24T10:23:46.055Z,13.27
2019-03-24T10:26:16.100Z,13.78
2019-03-24T10:28:46.645Z,13.98
2019-03-24T10:31:16.393Z,14.01
2019-03-24T10:33:46.157Z,14.11
2019-03-24T10:36:15.926Z,13.96
2019-03-24T10:38:45.796Z,13.83
2019-03-24T10:41:18.109Z,14.25
2019-03-24T10:43:48.629Z,14.37
2019-03-24T10:46:20.344Z,14.79
2019-03-24T10:48:50.562Z,15.03
2019-03-24T10:51:25.245Z,15.08
2019-03-24T10:53:57.617Z,15.10
2019-03-24T10:56:28.145Z,14.71
2019-03-24T10:58:57.922Z,15.09
2019-03-24T11:01:33.617Z,14.36
2019-03-24T11:04:04.534Z,15.07
2019-03-24T11:06:35.068Z,15.12
2019-03-24T11:09:06.131Z,15.05
2019-03-24T11:11:35.869Z,14.68
2019-03-24T11:14:05.642Z,14.62
2019-03-24T11:16:35.375Z,14.93
2019-03-24T11:19:05.993Z,14.67
2019-03-24T11:21:37.802Z,14.49
2019-03-24T11:24:08.495Z,13.86
2019-03-24T11:26:38.234Z,13.69
2019-03-24T11:29:09.416Z,13.44
2019-03-24T11:31:39.541Z,13.40
2019-03-24T11:34:21.737Z,12.78
2019-03-24T11:36:51.480Z,12.51
2019-03-24T11:39:21.252Z,12.72
2019-03-24T11:41:55.272Z,12.93
2019-03-24T11:44:25.849Z,13.02
2019-03-24T11:46:57.836Z,13.28
2019-03-24T11:49:27.994Z,13.12
2019-03-24T11:51:58.261Z,13.48
2019-03-24T11:54:30.473Z,13.74
2019-03-24T11:57:02.304Z,13.82
2019-03-24T11:59:32.274Z,13.53
2019-03-24T12:02:24.472Z,13.87
2019-03-24T12:04:57.931Z,13.86
2019-03-24T12:07:33.398Z,14.12
2019-03-24T12:10:10.366Z,14.78
2019-03-24T12:12:53.865Z,15.31
2019-03-24T12:15:24.617Z,16.02
2019-03-24T12:18:17.981Z,15.95
2019-03-24T12:20:49.628Z,16.21
2019-03-24T12:23:41.466Z,15.73
2019-03-24T12:26:16.323Z,14.62
2019-03-24T12:28:48.989Z,13.18
2019-03-24T12:31:21.468Z,13.31
2019-03-24T12:33:56.928Z,12.82
2019-03-24T12:36:29.025Z,12.93
2019-03-24T12:38:59.094Z,13.09
2019-03-24T12:41:28.887Z,13.07
2019-03-24T12:44:02.154Z,13.13
2019-03-24T12:47:00.114Z,12.95
2019-03-24T12:49:32.315Z,12.90
2019-03-24T12:52:05.118Z,12.85
2019-03-24T12:54:36.981Z,12.98
2019-03-24T12:57:09.266Z,12.88
2019-03-24T12:59:46.103Z,12.79
2019-03-24T13:02:16.540Z,12.72
2019-03-24T13:04:48.924Z,12.72
2019-03-24T13:07:19.359Z,12.70
2019-03-24T13:09:50.200Z,12.39
2019-03-24T13:12:20.018Z,12.38
2019-03-24T13:14:50.381Z,12.32
2019-03-24T13:17:20.722Z,12.32
2019-03-24T13:19:51.338Z,12.41
2019-03-24T13:22:26.687Z,12.42
2019-03-24T13:24:58.422Z,12.53
2019-03-24T13:27:34.617Z,12.60
2019-03-24T13:30:04.917Z,12.21
2019-03-24T13:32:35.847Z,12.40
2019-03-24T13:35:06.362Z,12.54
2019-03-24T13:37:37.637Z,12.54
2019-03-24T13:40:09.388Z,12.27
2019-03-24T13:42:59.443Z,12.32
2019-03-24T13:45:30.216Z,12.44
2019-03-24T13:48:00.733Z,12.54
2019-03-24T13:50:31.876Z,12.59
2019-03-24T13:53:03.593Z,12.72
2019-03-24T13:55:34.305Z,12.50
2019-03-24T13:58:05.235Z,12.63
2019-03-24T14:00:37.355Z,12.56
2019-03-24T14:03:27.529Z,12.61
2019-03-24T14:05:57.602Z,12.61
2019-03-24T14:08:27.636Z,12.60
2019-03-24T14:10:58.571Z,12.64
2019-03-24T14:13:28.619Z,12.63
2019-03-24T14:16:00.699Z,12.58
2019-03-24T14:18:31.003Z,12.56
2019-03-24T14:21:03.480Z,12.62
2019-03-24T14:23:34.737Z,12.60
2019-03-24T14:26:08.599Z,12.37
2019-03-24T14:28:40.396Z,12.49
2019-03-24T14:31:11.088Z,12.39
2019-03-24T14:33:44.000Z,12.44
2019-03-24T14:36:16.077Z,12.44
2019-03-24T14:38:48.021Z,12.31
2019-03-24T14:41:21.421Z,12.41
2019-03-24T14:43:58.281Z,12.24
2019-03-24T14:46:29.913Z,12.27
2019-03-24T14:49:00.644Z,12.10
2019-03-24T14:51:31.215Z,11.88
2019-03-24T14:54:01.598Z,11.83
2019-03-24T14:56:34.064Z,11.86
2019-03-24T14:59:06.351Z,11.99
2019-03-24T15:01:39.033Z,12.05
2019-03-24T15:04:10.803Z,12.06
2019-03-24T15:06:45.344Z,12.15
2019-03-24T15:09:19.231Z,12.15
2019-03-24T15:11:50.800Z,12.15
2019-03-24T15:14:20.552Z,12.25
2019-03-24T15:16:54.873Z,12.34
2019-03-24T15:19:27.205Z,12.35
2019-03-24T15:21:57.262Z,12.50
2019-03-24T15:24:32.032Z,12.60
2019-03-24T15:27:04.553Z,12.72
2019-03-24T15:29:34.637Z,13.16
2019-03-24T15:32:06.168Z,13.64
2019-03-24T15:34:36.254Z,13.97
2019-03-24T15:37:09.714Z,14.21
2019-03-24T15:39:40.399Z,14.52
2019-03-24T15:42:13.722Z,15.31
2019-03-24T15:44:44.128Z,15.66
2019-03-24T15:47:15.494Z,15.95
2019-03-24T15:49:46.946Z,15.92
2019-03-24T15:52:17.393Z,15.48
2019-03-24T15:54:47.414Z,15.70
2019-03-24T15:57:23.407Z,15.70
2019-03-24T15:59:54.549Z,15.36
2019-03-24T16:02:29.976Z,15.14
2019-03-24T16:05:00.516Z,15.02
2019-03-24T16:07:30.302Z,15.14
2019-03-24T16:10:01.369Z,15.09
2019-03-24T16:12:31.139Z,15.31
2019-03-24T16:15:01.443Z,15.75
2019-03-24T16:17:31.198Z,15.76
2019-03-24T16:20:01.303Z,15.95
2019-03-24T16:22:31.451Z,15.57
2019-03-24T16:25:01.240Z,15.43
2019-03-24T16:27:31.871Z,15.12
2019-03-24T16:30:02.110Z,15.29
2019-03-24T16:32:31.988Z,14.68
2019-03-24T16:35:20.891Z,15.29
2019-03-24T16:37:50.902Z,16.04
2019-03-24T16:40:21.887Z,16.28
2019-03-24T16:42:53.938Z,16.89
2019-03-24T16:45:24.941Z,17.57
2019-03-24T16:47:55.811Z,17.71
2019-03-24T16:50:27.939Z,18.22
2019-03-24T16:53:18.331Z,18.37
2019-03-24T16:55:50.084Z,18.09
2019-03-24T16:58:20.428Z,18.59
2019-03-24T17:01:01.154Z,17.63
2019-03-24T17:03:32.628Z,17.93
2019-03-24T17:06:03.181Z,17.04
2019-03-24T17:08:33.469Z,15.56
2019-03-24T17:11:08.020Z,15.44
2019-03-24T17:13:39.229Z,14.71
2019-03-24T17:16:09.757Z,14.85
2019-03-24T17:18:40.088Z,13.96
2019-03-24T17:21:12.998Z,14.62
2019-03-24T17:23:44.903Z,14.00
2019-03-24T17:26:14.654Z,14.28
2019-03-24T17:28:47.107Z,14.78
2019-03-24T17:31:17.112Z,14.30
2019-03-24T17:33:46.897Z,13.65
2019-03-24T17:36:17.865Z,12.99
2019-03-24T17:38:47.936Z,12.63
2019-03-24T17:41:18.405Z,12.35
2019-03-24T17:43:48.124Z,11.86
2019-03-24T17:46:19.529Z,11.97
2019-03-24T17:48:53.264Z,11.36
2019-03-24T17:51:23.425Z,11.38
2019-03-24T17:53:53.195Z,11.82
2019-03-24T17:56:31.868Z,11.82
2019-03-24T17:59:01.913Z,11.80
2019-03-24T18:01:33.344Z,11.60
2019-03-24T18:04:05.710Z,11.19
2019-03-24T18:06:35.467Z,11.25
2019-03-24T18:09:07.821Z,11.55
2019-03-24T18:11:39.315Z,11.64
2019-03-24T18:14:09.470Z,11.76
2019-03-24T18:16:39.549Z,11.88
2019-03-24T18:19:10.567Z,11.85
2019-03-24T18:21:40.333Z,11.76
2019-03-24T18:24:10.076Z,11.74
2019-03-24T18:26:39.921Z,11.66
2019-03-24T18:29:10.048Z,11.54
2019-03-24T18:31:40.162Z,11.51
2019-03-24T18:34:12.050Z,11.55
2019-03-24T18:36:43.830Z,11.41
2019-03-24T18:39:14.779Z,11.36
2019-03-24T18:41:46.705Z,11.27
2019-03-24T18:44:19.953Z,11.17
2019-03-24T18:46:50.002Z,11.15
2019-03-24T18:49:20.285Z,11.18
2019-03-24T18:51:53.030Z,11.17
2019-03-24T18:54:24.718Z,11.15
2019-03-24T18:56:54.746Z,11.03
2019-03-24T18:59:25.059Z,10.82
2019-03-24T19:01:58.155Z,10.79
2019-03-24T19:04:29.595Z,10.78
2019-03-24T19:06:59.600Z,10.76
2019-03-24T19:09:29.803Z,10.63
2019-03-24T19:12:00.176Z,10.50
2019-03-24T19:14:32.274Z,10.38
2019-03-24T19:17:05.313Z,10.26
2019-03-24T19:19:35.460Z,10.13
2019-03-24T19:22:05.978Z,10.02
2019-03-24T19:24:38.076Z,9.93
2019-03-24T19:27:11.123Z,9.93
2019-03-24T19:29:41.031Z,9.84
2019-03-24T19:32:16.615Z,9.71
2019-03-24T19:34:50.605Z,9.65
2019-03-24T19:37:23.100Z,9.60
2019-03-24T19:39:58.456Z,9.55
2019-03-24T19:42:29.011Z,9.55
2019-03-24T19:44:59.160Z,9.43
2019-03-24T19:47:29.246Z,9.46
2019-03-24T19:49:59.495Z,9.47
2019-03-24T19:52:29.960Z,9.33
2019-03-24T19:55:03.463Z,9.27
2019-03-24T19:57:33.217Z,9.24
2019-03-24T20:00:03.241Z,9.18
2019-03-24T20:02:34.780Z,9.22
2019-03-24T20:05:06.743Z,9.18
2019-03-24T20:07:47.360Z,9.11
2019-03-24T20:10:11.740Z,8.94
2019-03-24T20:12:42.762Z,8.97
2019-03-24T20:15:14.632Z,8.90
2019-03-24T20:17:54.086Z,8.84
2019-03-24T20:20:23.867Z,8.79
2019-03-24T20:22:57.192Z,8.81
2019-03-24T20:25:28.518Z,8.79
2019-03-24T20:28:03.796Z,8.68
2019-03-24T20:30:34.763Z,8.66
2019-03-24T20:33:05.164Z,8.64
2019-03-24T20:35:38.320Z,8.47
2019-03-24T20:38:10.655Z,8.44
2019-03-24T20:40:43.083Z,8.45
2019-03-24T20:43:16.223Z,8.53
2019-03-24T20:45:46.386Z,8.36
2019-03-24T20:48:16.417Z,8.26
2019-03-24T20:50:59.943Z,8.21
2019-03-24T20:53:30.708Z,8.09
2019-03-24T20:56:11.724Z,8.09
2019-03-24T20:58:42.891Z,8.02
2019-03-24T21:01:12.680Z,8.06
2019-03-24T21:04:12.676Z,7.97
2019-03-24T21:06:55.747Z,7.93
2019-03-24T21:09:29.109Z,7.98
2019-03-24T21:11:59.557Z,7.88
2019-03-24T21:14:29.293Z,7.92
2019-03-24T21:17:00.846Z,7.75
2019-03-24T21:19:33.337Z,7.65
2019-03-24T21:22:04.579Z,7.58
2019-03-24T21:24:34.399Z,7.68
2019-03-24T21:27:07.282Z,7.58
2019-03-24T21:29:37.824Z,7.60
2019-03-24T21:32:08.050Z,7.61
2019-03-24T21:34:40.135Z,7.62
2019-03-24T21:37:09.883Z,7.53
2019-03-24T21:39:40.257Z,7.59
2019-03-24T21:42:11.206Z,7.56
2019-03-24T21:44:40.949Z,7.55
2019-03-24T21:47:13.855Z,7.47
2019-03-24T21:49:43.873Z,7.44
2019-03-24T21:52:13.992Z,7.36
2019-03-24T21:54:44.439Z,7.23
2019-03-24T21:57:17.404Z,7.08
2019-03-24T21:59:47.936Z,6.90
2019-03-24T22:02:19.542Z,6.93
2019-03-24T22:04:49.373Z,6.84
2019-03-24T22:07:19.150Z,6.81
2019-03-24T22:09:50.300Z,6.87
2019-03-24T22:12:20.771Z,6.84
2019-03-24T22:14:50.514Z,6.73
2019-03-24T22:17:20.529Z,6.65
2019-03-24T22:19:52.870Z,6.64
2019-03-24T22:22:26.920Z,6.56
2019-03-24T22:24:57.888Z,6.49
2019-03-24T22:27:29.009Z,6.51
2019-03-24T22:30:11.116Z,6.52
2019-03-24T22:32:40.907Z,6.45
2019-03-24T22:35:11.735Z,6.49
2019-03-24T22:37:41.605Z,6.38
2019-03-24T22:40:12.896Z,6.52
2019-03-24T22:42:44.168Z,6.10
2019-03-24T22:45:15.121Z,6.15
2019-03-24T22:47:46.010Z,6.06
2019-03-24T22:50:15.899Z,6.04
2019-03-24T22:52:46.015Z,5.99
2019-03-24T22:55:17.492Z,6.01
2019-03-24T22:57:47.989Z,5.93
2019-03-24T23:00:37.078Z,5.97
2019-03-24T23:03:17.354Z,5.89
2019-03-24T23:05:47.503Z,5.90
2019-03-24T23:08:19.659Z,5.87
2019-03-24T23:10:50.269Z,5.88
2019-03-24T23:13:20.241Z,5.79
2019-03-24T23:15:50.419Z,5.80
2019-03-24T23:18:23.191Z,5.80
2019-03-24T23:20:54.312Z,5.79
2019-03-24T23:23:25.525Z,5.69
2019-03-24T23:25:56.296Z,5.74
2019-03-24T23:28:26.833Z,5.67
2019-03-24T23:30:57.293Z,5.54
2019-03-24T23:33:27.025Z,5.48
2019-03-24T23:35:58.108Z,5.25
2019-03-24T23:38:28.326Z,5.13
2019-03-24T23:41:03.986Z,5.28
2019-03-24T23:43:33.912Z,5.17
2019-03-24T23:46:04.320Z,5.15
2019-03-24T23:48:34.699Z,5.14
2019-03-24T23:51:06.817Z,4.71
2019-03-24T23:53:38.891Z,4.88
2019-03-24T23:56:08.637Z,4.92
2019-03-24T23:58:41.072Z,4.81
